Impacts METAR Board INFO
IDs:

KMDW - Chicago/Midway Intl, IL, US

Updated at: 1216 UTC 22 Feb 2018
Potential Impact None Slight Moderate High
Time22/00Z 22/01Z 22/02Z 22/03Z 22/04Z 22/05Z 22/06Z 22/07Z 22/08Z 22/09Z 22/10Z 22/11Z 22/12Z
VIS10 10 10 10 10 10 10 10 10 10
CIG220 210 200 210 210 23 200 220 24 120
CoverOVCOVCOVCOVCOVCOVCOVCOVCOVCOVC
FltCatVFRVFRVFRVFRVFRMVFRVFRVFRMVFRVFR
WX--------------------
WDir30304060505050505050
WSpd12 11 10 15 13 11 11 12 13 12
WGst-- -- -- -- -- -- -- -- -- --
Raw hourly METARs
KMDW 212353Z 03012KT 10SM FEW020 BKN220 OVC250 M02/M07 A3061 RMK AO2 SLP379 T10171067 10006 21017 53010



KMDW 220353Z 03011KT 10SM BKN210 OVC250 M01/M05 A3063 RMK AO2 SLP384 T10111050
KMDW 220453Z 04010KT 10SM OVC200 M01/M05 A3061 RMK AO2 SLP377 T10061050
KMDW 220553Z 06015KT 10SM OVC210 M01/M05 A3057 RMK AO2 SLP366 T10061050 11006 21017 400111017 58019
KMDW 220653Z 05013KT 10SM OVC210 00/M04 A3056 RMK AO2 SLP360 T00001039
KMDW 220753Z 05011KT 10SM BKN023 OVC170 00/M03 A3058 RMK AO2 SLP366 T00001033
KMDW 220853Z 05011KT 10SM FEW023 OVC200 00/M03 A3053 RMK AO2 SLP350 T00001033 58015
KMDW 220953Z 05012KT 10SM FEW023 FEW075 OVC220 00/M03 A3053 RMK AO2 SLP349 T00001033
KMDW 221053Z 05013KT 10SM BKN024 OVC170 01/M03 A3052 RMK AO2 SLP348 T00061028
KMDW 221153Z 05012KT 10SM FEW024 BKN120 OVC180 01/M03 A3053 RMK AO2 SLP351 T00111028 10011 21006 53001